Time;durP1;ratioP1;P1;durP2;ratioP2;P2;SDS_P1;SDS_P2;PMS_P1;PMS_P2;Temp;Humidity;BMP_temperature;BMP_pressure;BME280_temperature;BME280_humidity;BME280_pressure;Samples;Min_cycle;Max_cycle;Signal;HPM_P1;HPM_P2
2023/08/28 00:01:57;;;;;;;167.75;9.38;;;;;;;25.27;58.16;98950.84;7284112;19;130366;-36
2023/08/28 00:04:23;;;;;;;198.63;11.03;;;;;;;25.13;57.87;98939.31;7282269;19;129925;-36
2023/08/28 00:06:48;;;;;;;196.33;10.53;;;;;;;25.25;57.95;98947.59;7281492;19;128921;-36
2023/08/28 00:09:13;;;;;;;164.10;9.23;;;;;;;25.28;58.06;98958.56;7283480;19;130105;-35
2023/08/28 00:11:39;;;;;;;154.27;8.80;;;;;;;25.26;58.42;98957.91;7283532;19;131594;-36
2023/08/28 00:14:04;;;;;;;226.20;12.37;;;;;;;25.24;58.05;98964.34;7284512;19;131298;-37
2023/08/28 00:16:29;;;;;;;185.60;10.03;;;;;;;25.26;58.43;98954.47;7283738;19;130191;-37
2023/08/28 00:18:55;;;;;;;164.50;9.17;;;;;;;25.12;58.00;98931.59;7284693;19;129444;-35
2023/08/28 00:21:20;;;;;;;155.47;8.77;;;;;;;25.25;58.10;98947.59;7284350;19;130621;-34
2023/08/28 00:23:45;;;;;;;182.03;9.90;;;;;;;25.25;58.27;98956.31;7285508;19;132286;-38
2023/08/28 00:26:11;;;;;;;199.23;11.60;;;;;;;25.27;57.64;98958.75;7282890;19;131990;-38
2023/08/28 00:28:36;;;;;;;185.67;10.53;;;;;;;25.24;58.10;98961.72;7283907;19;131387;-39
2023/08/28 00:31:04;;;;;;;152.13;8.33;;;;;;;25.22;57.59;98955.84;7284751;19;131391;-34
2023/08/28 00:33:29;;;;;;;199.10;10.82;;;;;;;25.23;57.64;98960.09;7284574;19;129035;-37
2023/08/28 00:35:54;;;;;;;207.60;11.30;;;;;;;25.24;57.64;98954.66;7281835;19;129614;-36
2023/08/28 00:38:20;;;;;;;149.67;8.47;;;;;;;25.24;57.76;98959.09;7285255;19;130724;-37
2023/08/28 00:40:45;;;;;;;196.97;10.93;;;;;;;25.25;58.13;98951.03;7283498;19;129843;-34
2023/08/28 00:43:10;;;;;;;206.67;10.77;;;;;;;25.24;57.70;98946.75;7284131;19;129896;-34
2023/08/28 00:45:42;;;;;;;177.43;9.73;;;;;;;25.22;58.65;98945.31;7282854;19;129615;-37
2023/08/28 00:48:09;;;;;;;174.02;9.80;;;;;;;25.23;58.26;98949.56;7282636;19;130281;-35
2023/08/28 00:50:34;;;;;;;163.73;9.18;;;;;;;25.23;57.45;98949.56;7284448;19;133959;-36
2023/08/28 00:53:00;;;;;;;216.53;11.10;;;;;;;25.24;58.00;98951.19;7287823;19;129619;-36
2023/08/28 00:55:27;;;;;;;172.00;9.40;;;;;;;25.24;57.91;98953.81;7292108;19;131313;-38
2023/08/28 00:57:52;;;;;;;163.00;9.38;;;;;;;25.22;57.74;98958.47;7288778;19;129986;-33
2023/08/28 01:00:18;;;;;;;156.60;8.67;;;;;;;25.24;57.64;98964.34;7287173;19;130213;-35
2023/08/28 01:02:43;;;;;;;230.90;12.37;;;;;;;25.22;57.15;98966.38;7289973;19;129513;-34
2023/08/28 01:05:10;;;;;;;173.80;9.87;;;;;;;25.22;57.81;98974.25;7289354;19;130437;-38
2023/08/28 01:08:03;;;;;;;144.57;7.88;;;;;;;25.18;58.71;98970.31;7290225;19;130920;-35
2023/08/28 01:10:37;;;;;;;169.88;9.48;;;;;;;25.18;57.74;98955.38;7290661;19;131400;-37
2023/08/28 01:13:16;;;;;;;160.50;8.85;;;;;;;25.18;58.09;98963.25;7290774;19;130619;-38
2023/08/28 01:15:41;;;;;;;158.07;9.05;;;;;;;25.18;57.25;98960.63;7287576;19;131700;-35
2023/08/28 01:18:08;;;;;;;211.10;11.57;;;;;;;25.18;57.65;98970.31;7291222;19;131374;-35
2023/08/28 01:20:35;;;;;;;188.77;10.25;;;;;;;25.18;57.45;98965.91;7288453;19;131041;-34
2023/08/28 01:23:10;;;;;;;165.02;8.82;;;;;;;25.22;57.69;98966.38;7288849;19;129788;-35
2023/08/28 01:25:36;;;;;;;142.98;7.80;;;;;;;25.19;57.24;98971.94;7287765;19;130517;-34
2023/08/28 01:28:02;;;;;;;209.57;11.07;;;;;;;25.18;57.09;98955.38;7289144;19;132625;-36
2023/08/28 01:30:27;;;;;;;159.10;9.00;;;;;;;25.18;57.42;98959.81;7289740;19;130851;-36
2023/08/28 01:32:52;;;;;;;198.43;10.90;;;;;;;25.10;57.08;98944.09;7290397;19;131626;-39
2023/08/28 01:35:26;;;;;;;167.93;9.27;;;;;;;25.10;57.12;98942.28;7287519;19;130195;-39
2023/08/28 01:38:01;;;;;;;142.85;7.72;;;;;;;25.16;57.39;98948.63;7289215;19;130592;-41
2023/08/28 01:40:36;;;;;;;228.55;12.18;;;;;;;25.17;57.88;98958.19;7286765;19;131361;-37
2023/08/28 01:43:05;;;;;;;137.25;7.55;;;;;;;25.16;57.39;98949.47;7290842;19;130287;-36
2023/08/28 01:45:30;;;;;;;143.77;8.10;;;;;;;25.08;57.35;98935.56;7288418;19;131179;-38
2023/08/28 01:47:56;;;;;;;175.10;9.53;;;;;;;25.16;57.50;98948.63;7288980;19;130425;-34
2023/08/28 01:50:21;;;;;;;152.47;7.90;;;;;;;25.17;57.12;98942.41;7286341;19;130154;-37
2023/08/28 01:52:47;;;;;;;203.83;11.03;;;;;;;25.14;57.00;98940.13;7290905;19;131668;-37
2023/08/28 01:55:12;;;;;;;202.17;11.23;;;;;;;25.14;57.10;98937.50;7288143;19;131017;-39
2023/08/28 01:57:37;;;;;;;162.57;9.03;;;;;;;25.12;57.26;98924.50;7286930;19;130149;-36
2023/08/28 02:00:03;;;;;;;207.80;10.73;;;;;;;25.14;57.48;98921.72;7287845;19;131026;-36
2023/08/28 02:02:28;;;;;;;176.60;9.37;;;;;;;25.13;57.26;98917.44;7288460;19;130002;-38
2023/08/28 02:04:54;;;;;;;182.50;9.87;;;;;;;25.12;56.84;98915.81;7285946;19;130310;-37
2023/08/28 02:07:19;;;;;;;136.90;7.63;;;;;;;25.14;56.89;98919.09;7286562;19;130047;-40
2023/08/28 02:09:44;;;;;;;197.07;10.00;;;;;;;25.04;57.21;98915.88;7287776;19;130445;-35
2023/08/28 02:12:10;;;;;;;161.70;8.97;;;;;;;25.12;56.23;98936.84;7287361;19;130140;-37
2023/08/28 02:14:35;;;;;;;165.17;9.30;;;;;;;25.00;56.78;98914.59;7288030;19;130651;-36
2023/08/28 02:17:00;;;;;;;170.23;9.17;;;;;;;25.13;56.82;98930.59;7287208;19;130709;-38
2023/08/28 02:19:26;;;;;;;200.80;11.17;;;;;;;25.11;56.40;98928.13;7288029;19;129338;-37
2023/08/28 02:21:51;;;;;;;116.97;6.20;;;;;;;25.11;56.31;98922.88;7288594;19;130106;-34
2023/08/28 02:24:16;;;;;;;130.43;7.13;;;;;;;25.12;56.76;98918.44;7285639;19;130932;-35
2023/08/28 02:26:42;;;;;;;267.27;14.20;;;;;;;25.10;57.04;98941.47;7283750;19;130634;-38
2023/08/28 02:29:07;;;;;;;164.83;9.00;;;;;;;25.09;56.98;98960.88;7288579;19;130280;-38
2023/08/28 02:31:32;;;;;;;182.10;9.67;;;;;;;25.10;56.91;98965.13;7290146;19;130867;-38
2023/08/28 02:33:58;;;;;;;258.20;15.20;;;;;;;25.10;57.23;98979.13;7284525;19;130033;-34
2023/08/28 02:36:23;;;;;;;169.33;8.63;;;;;;;25.09;56.98;98976.66;7286503;19;130297;-34
2023/08/28 02:38:48;;;;;;;166.40;8.87;;;;;;;25.08;56.09;98975.84;7288240;19;129190;-36
2023/08/28 02:41:14;;;;;;;185.67;10.13;;;;;;;24.97;56.64;98951.78;7287792;19;129256;-38
2023/08/28 02:43:39;;;;;;;218.73;11.83;;;;;;;25.08;56.98;98981.09;7286881;19;129568;-37
2023/08/28 02:46:04;;;;;;;230.03;11.87;;;;;;;25.07;56.54;98984.72;7285082;19;132207;-36
2023/08/28 02:48:30;;;;;;;161.83;8.83;;;;;;;25.08;56.02;98989.00;7287300;19;130723;-36
2023/08/28 02:50:55;;;;;;;190.23;10.07;;;;;;;25.11;56.31;99001.78;7287127;19;130108;-36
2023/08/28 02:53:20;;;;;;;154.90;8.73;;;;;;;25.10;56.60;98996.72;7286824;19;129848;-37
2023/08/28 02:56:25;;;;;;;245.73;12.47;;;;;;;25.05;58.04;98996.41;7283033;19;129548;-36
2023/08/28 02:58:54;;;;;;;188.55;9.50;;;;;;;25.07;56.78;98999.69;7285711;19;130483;-36
2023/08/28 03:01:20;;;;;;;185.75;10.00;;;;;;;25.05;56.04;98997.25;7287417;19;130884;-36
2023/08/28 03:03:47;;;;;;;225.75;12.48;;;;;;;25.05;56.71;98993.78;7285346;19;130071;-36
2023/08/28 03:06:13;;;;;;;161.80;8.88;;;;;;;25.05;56.80;98996.41;7285461;19;130152;-36
2023/08/28 03:08:38;;;;;;;161.40;8.40;;;;;;;24.93;56.30;98966.25;7286532;19;129593;-36
2023/08/28 03:11:03;;;;;;;162.50;8.67;;;;;;;25.07;56.27;98989.19;7286217;19;129593;-37
2023/08/28 03:13:29;;;;;;;188.53;10.33;;;;;;;25.05;56.33;98985.91;7286694;19;129679;-37
2023/08/28 03:15:54;;;;;;;230.43;12.47;;;;;;;25.05;56.50;98991.97;7280069;19;129144;-36
2023/08/28 03:18:20;;;;;;;209.47;10.93;;;;;;;25.03;56.32;98982.63;7286043;19;130468;-37
2023/08/28 03:20:45;;;;;;;176.43;9.23;;;;;;;25.03;56.75;98998.41;7284637;19;129920;-36
2023/08/28 03:23:10;;;;;;;118.63;6.57;;;;;;;25.03;56.53;99009.75;7286506;19;130356;-36
2023/08/28 03:25:36;;;;;;;177.73;9.87;;;;;;;25.03;56.04;99008.91;7284075;19;129766;-38
2023/08/28 03:28:02;;;;;;;223.70;11.87;;;;;;;25.03;55.94;99008.91;7284231;19;129844;-35
2023/08/28 03:30:27;;;;;;;181.77;9.60;;;;;;;25.02;56.36;99008.13;7286780;19;129070;-35
2023/08/28 03:32:53;;;;;;;185.67;9.80;;;;;;;25.04;56.62;99010.56;7285080;19;130175;-39
2023/08/28 03:35:18;;;;;;;140.23;7.40;;;;;;;25.04;56.51;99006.09;7284990;19;130384;-37
2023/08/28 03:37:44;;;;;;;239.40;12.43;;;;;;;25.03;56.74;99006.28;7285674;19;130654;-36
2023/08/28 03:40:10;;;;;;;168.87;9.13;;;;;;;25.02;55.94;99016.00;7284865;19;130779;-36
2023/08/28 03:42:35;;;;;;;171.48;9.38;;;;;;;25.05;56.47;99007.75;7284215;19;129510;-37
2023/08/28 03:45:01;;;;;;;157.17;8.40;;;;;;;25.06;55.75;99026.97;7284125;19;129953;-36
2023/08/28 03:47:26;;;;;;;235.10;12.30;;;;;;;25.03;56.42;99020.28;7282747;19;130145;-36
2023/08/28 03:49:51;;;;;;;161.10;8.87;;;;;;;25.01;56.10;99019.63;7285640;19;129848;-37
2023/08/28 03:52:17;;;;;;;174.80;9.43;;;;;;;25.02;56.24;99007.28;7285665;19;131237;-36
2023/08/28 03:54:42;;;;;;;239.00;12.70;;;;;;;24.98;56.17;99012.09;7283274;19;129714;-37
2023/08/28 03:57:07;;;;;;;225.67;11.63;;;;;;;24.98;55.99;99016.53;7282446;19;130471;-37
2023/08/28 03:59:33;;;;;;;173.90;9.47;;;;;;;24.99;55.51;99023.44;7282472;19;129339;-36
2023/08/28 04:01:59;;;;;;;165.87;8.93;;;;;;;25.00;56.38;99025.06;7283174;19;129769;-37
2023/08/28 04:04:27;;;;;;;172.77;9.07;;;;;;;25.03;56.21;99030.78;7283902;19;131486;-35
2023/08/28 04:06:52;;;;;;;187.77;10.23;;;;;;;25.05;56.20;99033.25;7280508;19;129553;-37
2023/08/28 04:09:18;;;;;;;160.63;8.77;;;;;;;25.06;56.35;99026.97;7284552;19;129907;-36
2023/08/28 04:11:43;;;;;;;153.53;8.33;;;;;;;24.96;56.39;99005.34;7284847;19;129599;-36
2023/08/28 04:14:09;;;;;;;244.30;12.67;;;;;;;25.05;57.01;99023.56;7281119;19;130142;-36
2023/08/28 04:16:34;;;;;;;174.83;9.57;;;;;;;25.08;56.47;99011.84;7282060;19;131102;-37
2023/08/28 04:19:00;;;;;;;204.10;10.90;;;;;;;25.03;56.60;99003.66;7282612;19;131369;-37
2023/08/28 04:21:25;;;;;;;171.37;8.80;;;;;;;25.02;56.73;98997.59;7280185;19;129683;-36
2023/08/28 04:23:50;;;;;;;253.43;14.30;;;;;;;25.00;56.50;98996.13;7279648;19;129838;-37
2023/08/28 04:26:15;;;;;;;127.07;6.90;;;;;;;24.87;56.10;98978.31;7279288;19;130444;-36
2023/08/28 04:28:41;;;;;;;202.63;10.83;;;;;;;24.99;55.75;98999.75;7280040;19;130143;-36
2023/08/28 04:31:09;;;;;;;199.37;10.73;;;;;;;25.02;56.44;98996.78;7275441;19;133395;-37
2023/08/28 04:33:35;;;;;;;226.25;11.35;;;;;;;25.01;55.60;98988.06;7282886;19;133386;-36
2023/08/28 04:36:00;;;;;;;162.13;8.80;;;;;;;25.02;55.19;98987.09;7278961;19;130277;-36
2023/08/28 04:38:25;;;;;;;151.63;8.20;;;;;;;24.99;55.44;98995.28;7280956;19;129757;-37
2023/08/28 04:40:51;;;;;;;200.27;10.50;;;;;;;24.97;56.00;98983.34;7280077;19;130175;-37
2023/08/28 04:43:16;;;;;;;251.47;13.10;;;;;;;24.98;56.06;98979.69;7277751;19;130950;-36
2023/08/28 04:45:41;;;;;;;234.50;12.77;;;;;;;24.95;55.88;98980.88;7276462;19;132669;-37
2023/08/28 04:48:07;;;;;;;170.87;9.13;;;;;;;24.89;56.18;98965.00;7281517;19;130492;-36
2023/08/28 04:50:32;;;;;;;155.97;8.47;;;;;;;24.95;55.97;98974.78;7279939;19;130079;-37
2023/08/28 04:52:58;;;;;;;191.43;10.07;;;;;;;24.96;55.59;98986.94;7281656;19;130263;-38
2023/08/28 04:55:23;;;;;;;184.50;9.70;;;;;;;24.96;55.76;98986.94;7281924;19;131513;-36
2023/08/28 04:57:48;;;;;;;164.43;9.07;;;;;;;24.94;55.37;98983.69;7282068;19;130236;-36
2023/08/28 05:00:14;;;;;;;195.73;10.27;;;;;;;24.95;55.97;98990.56;7281005;19;129763;-37
2023/08/28 05:02:39;;;;;;;193.00;10.33;;;;;;;24.93;55.21;98997.81;7280258;19;129997;-36
2023/08/28 05:05:05;;;;;;;143.67;7.47;;;;;;;24.94;55.05;99010.00;7281205;19;129994;-38
2023/08/28 05:07:30;;;;;;;146.07;7.90;;;;;;;24.93;55.09;99003.91;7281420;19;130940;-37
2023/08/28 05:09:56;;;;;;;248.83;12.67;;;;;;;24.94;55.77;99010.78;7275212;19;130708;-36
2023/08/28 05:12:21;;;;;;;177.63;9.50;;;;;;;24.97;55.44;99009.63;7277761;19;131043;-37
2023/08/28 05:14:46;;;;;;;162.17;8.97;;;;;;;24.97;55.37;99009.63;7274731;19;131228;-37
2023/08/28 05:17:12;;;;;;;202.13;10.63;;;;;;;24.94;55.67;99010.00;7274961;19;129891;-36
2023/08/28 05:19:37;;;;;;;264.63;13.43;;;;;;;24.94;55.73;99005.53;7281533;19;129492;-36
2023/08/28 05:22:02;;;;;;;209.23;10.93;;;;;;;24.96;54.82;99013.25;7277675;19;130160;-36
2023/08/28 05:24:28;;;;;;;159.83;8.43;;;;;;;24.93;54.73;99018.84;7278432;19;131682;-36
2023/08/28 05:26:53;;;;;;;243.90;12.53;;;;;;;24.92;55.26;99017.22;7277418;19;130252;-37
2023/08/28 05:29:18;;;;;;;190.73;9.87;;;;;;;24.92;55.13;99014.59;7275348;19;129770;-36
2023/08/28 05:31:44;;;;;;;177.63;9.63;;;;;;;24.91;54.72;99021.66;7278459;19;129170;-36
2023/08/28 05:34:09;;;;;;;204.20;10.67;;;;;;;24.93;55.24;99018.84;7278823;19;130890;-36
2023/08/28 05:36:35;;;;;;;187.97;9.60;;;;;;;24.95;55.46;99022.97;7277767;19;130482;-37
2023/08/28 05:39:00;;;;;;;104.73;5.87;;;;;;;24.93;55.38;99017.06;7282641;19;129671;-36
2023/08/28 05:41:25;;;;;;;212.40;11.37;;;;;;;24.93;55.40;99026.75;7285516;19;129746;-35
2023/08/28 05:43:51;;;;;;;223.90;12.27;;;;;;;24.94;55.00;99020.50;7283557;19;130703;-36
2023/08/28 05:46:16;;;;;;;254.47;13.30;;;;;;;24.92;55.26;99023.31;7284797;19;129938;-37
2023/08/28 05:48:42;;;;;;;179.70;9.43;;;;;;;24.93;55.54;99018.84;7286166;19;129388;-37
2023/08/28 05:51:07;;;;;;;191.83;9.93;;;;;;;24.92;55.40;99018.06;7287370;19;131777;-36
2023/08/28 05:53:32;;;;;;;212.27;11.20;;;;;;;24.89;55.35;99028.91;7286306;19;129575;-36
2023/08/28 05:55:58;;;;;;;263.87;13.67;;;;;;;24.91;54.58;99028.72;7281235;19;134525;-36
2023/08/28 05:58:23;;;;;;;159.83;8.57;;;;;;;24.89;54.75;99036.78;7287271;19;130089;-37
2023/08/28 06:00:48;;;;;;;210.00;11.17;;;;;;;24.91;55.17;99029.53;7280738;19;129791;-37
2023/08/28 06:03:14;;;;;;;99.57;5.60;;;;;;;24.91;54.73;99026.09;7287938;19;130341;-36
2023/08/28 06:05:39;;;;;;;238.93;11.97;;;;;;;24.92;55.52;99028.56;7284578;19;129134;-36
2023/08/28 06:08:05;;;;;;;177.57;9.40;;;;;;;24.91;55.46;99026.09;7288270;19;131050;-36
2023/08/28 06:10:31;;;;;;;162.27;8.47;;;;;;;24.92;54.64;99033.00;7282881;19;130073;-37
2023/08/28 06:12:57;;;;;;;187.60;9.77;;;;;;;24.90;54.97;99025.28;7281609;19;131438;-37
2023/08/28 06:15:22;;;;;;;243.60;12.67;;;;;;;24.88;55.01;99027.28;7286006;19;131257;-36
2023/08/28 06:17:50;;;;;;;213.20;11.40;;;;;;;24.92;54.88;99033.00;7283992;19;131280;-35
2023/08/28 06:20:15;;;;;;;203.25;10.63;;;;;;;24.92;55.36;99035.63;7284913;19;129805;-37
2023/08/28 06:22:44;;;;;;;194.97;10.40;;;;;;;24.88;55.31;99047.47;7284253;19;131099;-36
2023/08/28 06:25:10;;;;;;;215.10;11.10;;;;;;;24.89;55.20;99055.19;7284069;19;130789;-35
2023/08/28 06:27:36;;;;;;;209.93;11.23;;;;;;;24.91;54.73;99047.13;7285831;19;129926;-37
2023/08/28 06:30:05;;;;;;;190.73;10.30;;;;;;;24.92;55.59;99048.78;7287882;19;131778;-36
2023/08/28 06:32:31;;;;;;;208.43;11.32;;;;;;;24.90;54.74;99056.03;7286677;19;130101;-36
2023/08/28 06:34:57;;;;;;;218.97;11.30;;;;;;;24.78;54.67;99033.75;7283323;19;129490;-34
2023/08/28 06:37:24;;;;;;;134.17;7.57;;;;;;;24.89;54.63;99044.69;7282917;19;129867;-37
2023/08/28 06:39:49;;;;;;;192.18;10.40;;;;;;;24.86;54.88;99038.97;7283029;19;130216;-37
2023/08/28 06:42:15;;;;;;;193.13;10.27;;;;;;;24.89;55.06;99038.63;7283849;19;131821;-37
2023/08/28 06:44:40;;;;;;;231.20;12.13;;;;;;;24.86;54.45;99038.97;7279957;19;130961;-37
2023/08/28 06:47:05;;;;;;;138.10;7.70;;;;;;;24.88;55.21;99042.22;7280213;19;129773;-35
2023/08/28 06:49:31;;;;;;;201.23;10.67;;;;;;;24.87;55.05;99043.22;7281658;19;130096;-37
2023/08/28 06:51:56;;;;;;;195.27;10.23;;;;;;;24.85;55.06;99045.22;7283597;19;130360;-36
2023/08/28 06:54:22;;;;;;;163.40;8.90;;;;;;;24.84;54.86;99046.22;7282775;19;129706;-35
2023/08/28 06:56:47;;;;;;;192.93;10.30;;;;;;;24.76;54.54;99035.75;7283674;19;130360;-36
2023/08/28 06:59:12;;;;;;;191.40;9.90;;;;;;;24.85;54.52;99050.47;7282944;19;131563;-35
2023/08/28 07:01:37;;;;;;;273.60;14.17;;;;;;;24.85;54.22;99047.84;7279345;19;130965;-37
2023/08/28 07:04:04;;;;;;;213.57;12.20;;;;;;;24.83;54.28;99049.81;7283710;19;129844;-37
2023/08/28 07:06:30;;;;;;;225.35;12.15;;;;;;;24.82;54.93;99056.91;7282051;19;132211;-37
2023/08/28 07:08:55;;;;;;;154.93;8.13;;;;;;;24.69;54.50;99037.41;7285456;19;131279;-38
2023/08/28 07:11:21;;;;;;;304.07;15.67;;;;;;;24.82;54.98;99058.69;7284162;19;130324;-35
2023/08/28 07:13:46;;;;;;;236.70;13.00;;;;;;;24.80;54.63;99061.50;7285901;19;130307;-37
2023/08/28 07:16:11;;;;;;;160.50;9.03;;;;;;;24.79;54.37;99066.94;7284271;19;130737;-34
2023/08/28 07:18:37;;;;;;;168.87;8.93;;;;;;;24.78;54.18;99052.13;7285231;19;129622;-35
2023/08/28 07:21:02;;;;;;;202.63;10.17;;;;;;;24.77;54.55;99045.25;7280803;19;129860;-36
2023/08/28 07:23:28;;;;;;;196.70;10.47;;;;;;;24.75;54.78;99048.06;7284968;19;129679;-37
2023/08/28 07:25:53;;;;;;;172.13;9.07;;;;;;;24.77;54.91;99050.50;7284291;19;130180;-39
2023/08/28 07:28:19;;;;;;;218.53;11.80;;;;;;;24.77;54.71;99055.78;7283349;19;130598;-34
2023/08/28 07:30:45;;;;;;;170.35;8.80;;;;;;;24.77;54.60;99061.03;7283095;19;130560;-36
2023/08/28 07:33:10;;;;;;;118.23;6.67;;;;;;;24.77;54.39;99055.78;7283165;19;130040;-36
2023/08/28 07:35:36;;;;;;;177.83;9.57;;;;;;;24.78;54.55;99047.72;7282987;19;129825;-37
2023/08/28 07:38:05;;;;;;;187.00;9.87;;;;;;;24.79;54.55;99045.91;7281913;19;130259;-36
2023/08/28 07:40:32;;;;;;;233.20;12.32;;;;;;;24.79;54.13;99032.75;7279729;19;131499;-37
2023/08/28 07:43:01;;;;;;;179.60;9.65;;;;;;;24.79;55.09;99044.06;7283666;19;130390;-37
2023/08/28 07:45:27;;;;;;;179.35;9.77;;;;;;;24.79;54.90;99033.56;7279362;19;130340;-35
2023/08/28 07:47:53;;;;;;;176.57;9.23;;;;;;;24.77;54.49;99040.81;7283637;19;130310;-36
2023/08/28 07:50:18;;;;;;;180.03;9.57;;;;;;;24.79;54.18;99027.50;7284490;19;130966;-36
2023/08/28 07:52:44;;;;;;;161.80;9.10;;;;;;;24.80;54.49;99032.59;7286211;19;131191;-36
2023/08/28 07:55:09;;;;;;;229.83;12.17;;;;;;;24.80;55.01;99029.13;7281103;19;130257;-36
2023/08/28 07:57:35;;;;;;;207.87;11.13;;;;;;;24.80;54.08;99023.88;7282384;19;129554;-36
2023/08/28 08:00:06;;;;;;;225.93;12.20;;;;;;;24.81;54.53;99025.53;7283909;19;129929;-36
2023/08/28 08:02:31;;;;;;;180.60;9.70;;;;;;;24.79;53.97;99007.28;7280454;19;129547;-36
2023/08/28 08:04:56;;;;;;;166.73;8.97;;;;;;;24.68;54.50;98986.66;7279998;19;129897;-38
2023/08/28 08:07:22;;;;;;;192.50;10.30;;;;;;;24.79;54.20;99002.00;7279613;19;131874;-36
2023/08/28 08:09:48;;;;;;;203.07;10.77;;;;;;;24.79;54.17;99001.22;7282792;19;131919;-36
2023/08/28 08:12:13;;;;;;;207.97;11.07;;;;;;;24.78;54.65;98999.56;7283059;19;133715;-35
2023/08/28 08:14:38;;;;;;;176.00;9.73;;;;;;;24.79;54.91;99001.22;7277856;19;130252;-37
2023/08/28 08:17:04;;;;;;;196.17;10.40;;;;;;;24.74;54.92;99004.38;7281928;19;129709;-37
2023/08/28 08:19:29;;;;;;;141.87;7.27;;;;;;;24.77;54.32;98997.94;7284424;19;129696;-37
2023/08/28 08:21:54;;;;;;;174.93;9.23;;;;;;;24.78;54.81;98994.31;7281927;19;129111;-36
2023/08/28 08:24:20;;;;;;;176.10;9.50;;;;;;;24.78;54.51;98999.56;7282611;19;130579;-36
2023/08/28 08:26:45;;;;;;;231.70;12.13;;;;;;;24.77;54.50;99008.44;7282851;19;131539;-37
2023/08/28 08:29:11;;;;;;;180.70;9.47;;;;;;;24.75;54.47;98999.91;7281156;19;130596;-37
2023/08/28 08:31:36;;;;;;;170.17;9.30;;;;;;;24.76;54.06;99006.81;7281230;19;131401;-36
2023/08/28 08:34:02;;;;;;;254.37;14.77;;;;;;;24.65;53.95;98994.84;7279140;19;130262;-36
2023/08/28 08:36:28;;;;;;;238.30;12.27;;;;;;;24.69;54.16;98987.47;7279522;19;130770;-35
2023/08/28 08:38:53;;;;;;;151.43;8.03;;;;;;;24.76;53.83;98996.31;7280373;19;131032;-37
2023/08/28 08:41:19;;;;;;;208.23;10.93;;;;;;;24.65;54.09;98978.25;7276572;19;130083;-37
2023/08/28 08:43:44;;;;;;;180.57;9.87;;;;;;;24.77;54.28;98996.13;7281273;19;131509;-36
2023/08/28 08:46:10;;;;;;;256.60;13.17;;;;;;;24.75;54.03;98999.91;7277955;19;130254;-36
2023/08/28 08:48:36;;;;;;;153.13;8.27;;;;;;;24.75;54.81;98999.91;7283099;19;129884;-36
2023/08/28 08:51:07;;;;;;;109.32;6.13;;;;;;;24.76;54.90;98993.69;7282180;19;130593;-35
2023/08/28 08:54:04;;;;;;;186.45;9.90;;;;;;;24.76;55.69;98998.94;7283289;19;129122;-36
2023/08/28 08:56:33;;;;;;;179.98;9.63;;;;;;;24.62;54.57;98973.34;7281700;19;131346;-36
2023/08/28 08:58:59;;;;;;;168.43;8.45;;;;;;;24.61;53.86;98967.28;7281790;19;130413;-35
2023/08/28 09:01:26;;;;;;;191.05;10.25;;;;;;;24.73;54.30;98997.47;7280717;19;131175;-36
2023/08/28 09:03:52;;;;;;;210.25;12.25;;;;;;;24.74;54.59;99008.81;7279252;19;131114;-36
2023/08/28 09:06:17;;;;;;;269.92;14.45;;;;;;;24.75;54.34;99015.69;7274541;19;129933;-34
2023/08/28 09:08:43;;;;;;;190.53;9.50;;;;;;;24.74;53.89;99016.69;7281975;19;132095;-35
2023/08/28 09:11:08;;;;;;;171.17;9.03;;;;;;;24.75;54.62;99005.16;7282558;19;134027;-36
2023/08/28 09:13:41;;;;;;;169.47;8.77;;;;;;;24.73;55.08;99009.78;7280647;19;129654;-37
2023/08/28 09:16:07;;;;;;;187.95;10.05;;;;;;;24.76;53.95;99017.34;7286894;19;133941;-36
2023/08/28 09:18:32;;;;;;;218.97;11.73;;;;;;;24.78;55.03;99023.22;7282643;19;129534;-36
2023/08/28 09:21:09;;;;;;;211.23;11.13;;;;;;;24.75;55.05;99031.47;7286402;19;132205;-36
2023/08/28 09:23:41;;;;;;;139.95;7.45;;;;;;;24.77;55.09;99046.09;7288642;19;130273;-35
2023/08/28 09:26:06;;;;;;;164.93;8.73;;;;;;;24.79;54.21;99049.34;7287338;19;131493;-36
2023/08/28 09:28:32;;;;;;;154.43;8.57;;;;;;;24.77;54.58;99055.78;7287469;19;130614;-36
2023/08/28 09:30:57;;;;;;;206.47;10.33;;;;;;;24.74;54.37;99061.38;7288217;19;129875;-36
2023/08/28 09:33:23;;;;;;;183.73;9.90;;;;;;;24.63;54.21;99027.53;7291009;19;131771;-36
2023/08/28 09:35:48;;;;;;;239.83;12.77;;;;;;;24.78;54.06;99044.25;7283870;19;131213;-35
2023/08/28 09:38:13;;;;;;;186.50;9.97;;;;;;;24.77;54.11;99029.47;7287633;19;129936;-35
2023/08/28 09:40:41;;;;;;;172.47;8.77;;;;;;;24.75;54.30;99011.25;7287848;19;129852;-36
2023/08/28 09:43:12;;;;;;;200.95;11.52;;;;;;;24.72;54.38;98997.63;7288906;19;129612;-36
2023/08/28 09:45:37;;;;;;;203.55;10.57;;;;;;;24.76;53.97;98993.69;7286770;19;130967;-36
2023/08/28 09:48:04;;;;;;;184.80;9.50;;;;;;;24.78;54.06;98983.78;7287158;19;129537;-36
2023/08/28 09:50:31;;;;;;;200.32;10.38;;;;;;;24.80;54.78;98987.06;7288596;19;129207;-36
2023/08/28 09:53:07;;;;;;;;;;;;;;;24.70;56.13;98976.78;7288287;19;129990;-36
2023/08/28 09:55:44;;;;;;;166.70;8.93;;;;;;;24.77;55.14;98976.91;7286956;19;130611;-36
2023/08/28 09:58:10;;;;;;;;;;;;;;;24.72;55.90;98968.72;7288285;19;130222;-37
2023/08/28 10:00:39;;;;;;;182.63;9.70;;;;;;;24.66;54.70;98951.00;7285677;19;131142;-36
2023/08/28 10:03:06;;;;;;;235.07;11.93;;;;;;;24.75;54.35;98952.59;7287551;19;131220;-36
2023/08/28 10:05:35;;;;;;;176.90;9.27;;;;;;;24.74;54.60;98962.31;7289201;19;131450;-35
2023/08/28 10:08:04;;;;;;;174.38;9.50;;;;;;;24.73;54.54;98955.41;7289258;19;131437;-39
2023/08/28 10:10:29;;;;;;;190.70;10.13;;;;;;;24.76;54.57;98955.03;7288442;19;129771;-36
2023/08/28 10:12:55;;;;;;;217.77;11.33;;;;;;;24.76;54.76;98954.25;7287348;19;129879;-36
2023/08/28 10:15:22;;;;;;;189.57;9.93;;;;;;;24.78;54.67;98960.94;7286391;19;129891;-36
2023/08/28 10:17:49;;;;;;;181.18;9.77;;;;;;;24.65;55.11;98937.03;7288204;19;129826;-36
2023/08/28 10:20:16;;;;;;;175.57;9.35;;;;;;;24.77;54.65;98959.31;7287381;19;130483;-36
2023/08/28 10:22:44;;;;;;;240.73;12.43;;;;;;;24.76;55.14;98957.66;7286470;19;129696;-36
2023/08/28 10:25:13;;;;;;;205.27;10.60;;;;;;;24.76;55.24;98975.28;7285102;19;129530;-35
2023/08/28 10:27:40;;;;;;;161.18;8.70;;;;;;;24.76;54.63;98967.38;7289327;19;131424;-36
2023/08/28 10:30:06;;;;;;;;;;;;;;;24.62;56.93;98950.53;7286367;19;129628;-36
2023/08/28 10:32:32;;;;;;;192.52;10.20;;;;;;;24.76;54.60;98965.56;7287702;19;129395;-36
2023/08/28 10:34:58;;;;;;;196.47;10.63;;;;;;;24.74;54.62;98964.94;7283775;19;129363;-36
2023/08/28 10:37:23;;;;;;;116.07;6.23;;;;;;;24.73;55.50;98959.81;7285275;19;131614;-36
2023/08/28 10:39:49;;;;;;;199.23;10.50;;;;;;;24.73;55.12;98965.09;7286262;19;129322;-36
2023/08/28 10:42:18;;;;;;;176.85;9.48;;;;;;;24.74;55.83;98966.75;7285087;19;129969;-36
2023/08/28 10:44:45;;;;;;;177.80;9.40;;;;;;;24.75;55.47;98969.19;7284922;19;130883;-36
2023/08/28 10:47:19;;;;;;;152.65;8.00;;;;;;;24.73;56.50;98978.22;7285145;19;129579;-36
2023/08/28 10:49:44;;;;;;;198.40;10.98;;;;;;;24.74;55.42;98972.00;7287962;19;131481;-35
2023/08/28 10:52:10;;;;;;;159.23;8.80;;;;;;;24.71;55.59;98964.47;7284803;19;130118;-36
2023/08/28 10:54:42;;;;;;;212.90;11.17;;;;;;;24.73;56.31;98973.81;7284708;19;130061;-35
2023/08/28 10:57:21;;;;;;;186.20;9.82;;;;;;;24.72;56.92;98973.97;7286414;19;129700;-34
2023/08/28 10:59:48;;;;;;;186.77;10.05;;;;;;;24.71;55.43;98983.66;7285972;19;129702;-36
2023/08/28 11:02:13;;;;;;;187.95;10.15;;;;;;;24.69;55.85;98982.22;7284149;19;131065;-35
2023/08/28 11:04:40;;;;;;;170.57;9.07;;;;;;;24.75;56.01;98994.66;7283810;19;130607;-36